• Join FlightAware (Why Join?)
  • Login
  • US Flag 
05:50PM EDT


 

Airport Tracker/Info


-or-


 

Live Flight TrackerFlight Track Log ✈ AWI3704 ✈ 12-Nov-2013 ✈ KILM - KPHL

Flight Track Log - Related Links

Times and Time Zones

All times are in EST time to prevent confusion due to time zone crossing. See the AWI3704 flight status page for this flight to view local times or setup timezone preferences in your user account.

Time Position Orientation Groundspeed Altitude Reporting Facility
EST Latitude Longitude Course Direction KTS MPH feet Rate Location/Type
07:15AM 34.3622 -77.9142 22° Northeast 224 258 3,400  Level Washington Center
07:16AM 34.5546 -77.7778 14° North  Level Estimated
07:16AM 34.4294 -77.8908 16° North 235 270 5,400  Level Washington Center
07:17AM 34.6535 -77.7561 10° North  Level FlightAware Approximate
07:17AM 34.5050 -77.8628 17° North 259 298 7,400  Level Washington Center
07:18AM 34.7478 -77.7138 North  Level Estimated
07:18AM 34.5847 -77.8372 15° North 282 325 9,500  Level Washington Center
07:19AM 34.8422 -77.6714 13° North  Level Estimated
07:19AM 34.6689 -77.8067 17° North 293 337 11,000  Level Washington Center
07:20AM 34.9365 -77.6289 22° Northeast  Level Estimated
07:20AM 34.7531 -77.7608 24° Northeast 307 353 12,900  Level Washington Center
07:21AM 34.8397 -77.7000 30° Northeast 327 376 15,100 2,160 Climbing Washington Center
07:22AM 34.9283 -77.6389 29° Northeast 345 397 17,200 1,860 Climbing Washington Center
07:23AM 35.0192 -77.5778 29° Northeast 359 413 18,800 1,800 Climbing Washington Center
07:24AM 35.1014 -77.5214 29° Northeast 369 425 20,900 1,740 Climbing Washington Center
07:25AM 35.1942 -77.4603 28° Northeast 374 430 22,400 1,500 Climbing Washington Center
07:26AM 35.2892 -77.3961 29° Northeast 374 430 23,900 1,260 Climbing Washington Center
07:27AM 35.3572 -77.2983 50° Northeast 374 430 25,000 1,140 Climbing Washington Center
07:28AM 35.3758 -77.1536 81° East 367 422 26,200 960 Climbing Washington Center
07:29AM 35.3903 -77.0086 83° East 394 453 27,000 360 Climbing Washington Center
07:30AM 35.4086 -76.8536 82° East 431 496 27,000  Level Washington Center
07:31AM 35.4272 -76.6728 83° East 462 532 27,000  Level Washington Center
07:32AM 35.4431 -76.5175 83° East 469 540 27,000  Level Washington Center
07:33AM 35.4628 -76.3775 80° East 446 513 27,000  Level Washington Center
07:34AM 35.4803 -76.2272 82° East 436 502 27,000  Level Washington Center
07:35AM 35.4997 -76.0819 81° East 436 502 27,000  Level Washington Center
07:36AM 35.5233 -75.9342 79° East 441 507 27,000 -60 Level Washington Center
07:37AM 35.6153 -75.8578 34° Northeast 364 419 26,900  Descending Washington Center
07:38AM 35.7153 -75.8811 349° North 311 358 27,000  Climbing Washington Center
07:39AM 35.8114 -75.9097 346° North 318 366 27,000  Level Washington Center
07:40AM 35.9072 -75.9331 349° North 333 383 27,000  Level Washington Center
07:41AM 36.0031 -75.9617 346° North 345 397 27,000  Level Washington Center
07:42AM 36.1033 -75.9775 353° North 356 410 27,000  Level Washington Center
07:43AM 36.2161 -75.9472 12° North 368 423 27,000  Level Washington Center
07:44AM 36.3369 -75.9169 11° North 405 466 27,000  Level Washington Center
07:45AM 36.4561 -75.8864 12° North 427 491 27,000  Level Washington Center
07:46AM 36.5750 -75.8531 13° North 432 497 27,000  Level Washington Center
07:47AM 36.6942 -75.8225 12° North 432 497 27,000  Level Washington Center
07:48AM 36.8131 -75.7917 12° North 432 497 27,000  Level Washington Center
07:49AM 36.9319 -75.7633 11° North 432 497 27,000  Level Washington Center
07:50AM 37.0406 -75.7350 12° North 432 497 27,000  Level Washington Center
07:51AM 37.1572 -75.7039 12° North 432 497 27,000 -600 Level Washington Center
07:52AM 37.2764 -75.6728 12° North 427 491 25,900 -1,380 Descending Washington Center
07:53AM 37.3953 -75.6414 12° North 432 497 24,400 -960 Descending Washington Center
07:54AM 37.5078 -75.6153 10° North 427 491 24,000 -240 Descending Washington Center
07:55AM 37.6225 -75.5814 13° North 416 479 24,000 -240 Level Washington Center
07:56AM 37.7353 -75.5497 13° North 410 472 23,600 -900 Descending Washington Center
07:57AM 37.8497 -75.5233 10° North 410 472 22,300 -1,260 Descending Washington Center
07:58AM 37.9603 -75.4969 11° North 410 472 21,100 -1,260 Descending Washington Center
07:59AM 38.0667 -75.4547 17° North 405 466 19,900 -1,200 Descending Washington Center
08:00AM 38.1689 -75.3964 24° Northeast 400 460 18,800 -1,140 Descending Washington Center
08:01AM 38.2686 -75.3325 27° Northeast 400 460 17,700 -1,200 Descending Washington Center
08:02AM 38.3750 -75.2658 26° Northeast 395 455 16,400 -1,320 Descending Washington Center
08:03AM 38.4728 -75.2044 26° Northeast 390 449 15,200 -720 Descending Washington Center
08:04AM 38.5706 -75.1428 26° Northeast 384 442 15,000 -120 Descending Washington Center
08:05AM 38.6661 -75.0758 29° Northeast 384 442 15,000 -60 Level Washington Center
08:06AM 38.7597 -75.0192 25° Northeast 384 442 14,900  Descending Washington Center
08:07AM 38.8553 -74.9544 28° Northeast 384 442 15,000  Climbing Washington Center
08:08AM 38.9467 -74.8950 27° Northeast 384 442 14,900 -60 Descending Washington Center
08:09AM 39.0211 -74.8142 40° Northeast 359 413 14,900 -540 Level Washington Center
08:10AM 39.0831 -74.7119 52° Northeast 354 407 13,900 -600 Descending Washington Center
08:11AM 39.1469 -74.6119 50° Northeast 348 400 13,800 -180 Descending Washington Center
08:12AM 39.2106 -74.5042 53° Northeast 363 418 13,600 -660 Descending Washington Center
08:13AM 39.2658 -74.4119 52° Northeast 370 426 12,500 -900 Descending Washington Center
08:14AM 39.3403 -74.3597 28° Northeast 335 386 11,800 -360 Descending Washington Center
08:15AM 39.3578 -74.4294 288° West 172 198 11,800 -480 Level Washington Center
08:16AM 39.3083 -74.4919 224° Southwest 123 142 10,900 -960 Descending Washington Center
08:17AM 39.2800 -74.5700 245° Southwest 181 208 9,900 -900 Descending Washington Center
08:18AM 39.3283 -74.6472 309° West 208 239 9,100 -600 Descending Washington Center
08:19AM 39.3747 -74.7164 311° West 233 268 8,800 -60 Descending Washington Center
08:21AM 39.4667 -74.8500 312° West 252 290 9,000 60 Climbing Philadelphia TRACON
08:22AM 39.5167 -74.9333 308° West 252 290 9,000  Level Philadelphia TRACON
08:23AM 39.5667 -74.9833 322° Northwest 264 304 9,000 -540 Level Philadelphia TRACON
08:24AM 39.6000 -75.0667 297° West 241 277 8,000 -540 Descending Philadelphia TRACON
08:25AM 39.5667 -75.1333 237° Southwest 246 283 8,000 -480 Level Philadelphia TRACON
08:26AM 39.5667 -75.2167 270° West 240 276 7,200 -960 Descending Philadelphia TRACON
08:27AM 39.6000 -75.3000 297° West 234 269 6,100 -600 Descending Philadelphia TRACON
08:28AM 39.6167 -75.3833 285° West 186 214 6,000 -60 Descending Philadelphia TRACON
08:29AM 39.6333 -75.4333 293° West 223 257 6,000  Level Philadelphia TRACON
08:30AM 39.6833 -75.5167 308° West 242 278 6,000  Level Philadelphia TRACON
08:31AM 39.7000 -75.5833 288° West 252 290 6,000  Level Philadelphia TRACON
08:32AM 39.7333 -75.6667 298° West 245 282 6,000  Level Philadelphia TRACON
08:33AM 39.7667 -75.7500 298° West 240 276 6,000  Level Philadelphia TRACON
08:34AM 39.8000 -75.8167 303° West 238 274 6,000  Level Philadelphia TRACON
08:36AM 39.8525 -75.9410 299° West  Level FlightAware Approximate
08:43AM 40.1125 -76.5858 297° West  Level FlightAware Approximate
08:44AM 40.1642 -76.7023 298° West  Level FlightAware Approximate